Terminal Aerodrome Forecast
Issued by NWS

Home | Current Version | Previous Version | Text Only | Print | Product List | Glossary On
Versions: 1 2 3 4 5 6 7 8 9 10 11 12 13 14 15 16 17 18 19 20 21 22 23 24 25 26 27 28 29 30 31
000
FTUS43 KMKX 170520
TAFENW
TAF
KENW 170520Z 1706/1806 15012KT P6SM BKN120 WS020/15045KT
     FM170800 15013G20KT P6SM BKN070 WS020/17045KT
     FM171300 18011G18KT P6SM BKN050
     FM171600 23011G18KT P6SM BKN040
     FM171900 24012KT P6SM SCT040 BKN200
     FM172300 28008KT P6SM FEW040 BKN200
     FM180300 33004KT P6SM BKN200=

USA.gov is the U.S. government's official web portal to all federal, state and local government web resources and services.